Terminal Aerodrome Forecast
Issued by NWS Omaha/Valley, NE

Home | Current Version | Previous Version | Graphics & Text | Print | Product List | Glossary On
Versions: 1 2 3 4 5 6 7 8 9 10 11 12 13 14 15 16 17 18 19 20 21 22 23 24 25 26 27 28 29 30 31 32 33 34 35 36 37 38 39
000
FTUS43 KOAX 031720
TAFOFK
TAF
KOFK 031720Z 0318/0418 16003KT P6SM BKN050
      TEMPO 0318/0320 BKN025
     FM040000 17004KT P6SM SCT050
      TEMPO 0409/0412 4SM BR SKC=

USA.gov is the U.S. government's official web portal to all federal, state and local government web resources and services.